sensor_id;sensor_type;location;lat;lon;timestamp;P1;durP1;ratioP1;P2;durP2;ratioP2
9445;SDS011;4761;49.490;10.908;2022-11-12T00:02:18;5.03;;;4.57;;
9445;SDS011;4761;49.490;10.908;2022-11-12T00:04:44;4.87;;;4.47;;
9445;SDS011;4761;49.490;10.908;2022-11-12T00:07:09;5.00;;;4.43;;
9445;SDS011;4761;49.490;10.908;2022-11-12T00:09:35;5.90;;;4.93;;
9445;SDS011;4761;49.490;10.908;2022-11-12T00:12:00;4.83;;;4.33;;
9445;SDS011;4761;49.490;10.908;2022-11-12T00:14:26;4.83;;;4.43;;
9445;SDS011;4761;49.490;10.908;2022-11-12T00:16:51;4.70;;;4.30;;
9445;SDS011;4761;49.490;10.908;2022-11-12T00:19:17;5.60;;;4.53;;
9445;SDS011;4761;49.490;10.908;2022-11-12T00:21:42;4.50;;;4.10;;
9445;SDS011;4761;49.490;10.908;2022-11-12T00:24:08;4.43;;;3.80;;
9445;SDS011;4761;49.490;10.908;2022-11-12T00:26:33;4.20;;;3.80;;
9445;SDS011;4761;49.490;10.908;2022-11-12T00:28:59;4.03;;;3.63;;
9445;SDS011;4761;49.490;10.908;2022-11-12T00:31:24;4.30;;;3.90;;
9445;SDS011;4761;49.490;10.908;2022-11-12T00:33:50;3.80;;;3.50;;
9445;SDS011;4761;49.490;10.908;2022-11-12T00:36:15;3.70;;;3.40;;
9445;SDS011;4761;49.490;10.908;2022-11-12T00:38:41;3.50;;;3.20;;
9445;SDS011;4761;49.490;10.908;2022-11-12T00:41:06;3.50;;;3.20;;
9445;SDS011;4761;49.490;10.908;2022-11-12T00:43:32;3.57;;;3.27;;
9445;SDS011;4761;49.490;10.908;2022-11-12T00:45:57;3.50;;;3.20;;
9445;SDS011;4761;49.490;10.908;2022-11-12T00:48:23;3.93;;;3.63;;
9445;SDS011;4761;49.490;10.908;2022-11-12T00:50:49;3.90;;;3.60;;
9445;SDS011;4761;49.490;10.908;2022-11-12T00:53:14;3.70;;;3.40;;
9445;SDS011;4761;49.490;10.908;2022-11-12T00:55:40;3.43;;;3.13;;
9445;SDS011;4761;49.490;10.908;2022-11-12T00:58:05;3.80;;;3.40;;
9445;SDS011;4761;49.490;10.908;2022-11-12T01:00:31;3.97;;;3.67;;
9445;SDS011;4761;49.490;10.908;2022-11-12T01:02:56;3.90;;;3.60;;
9445;SDS011;4761;49.490;10.908;2022-11-12T01:05:22;4.00;;;3.70;;
9445;SDS011;4761;49.490;10.908;2022-11-12T01:07:47;3.77;;;3.47;;
9445;SDS011;4761;49.490;10.908;2022-11-12T01:10:13;3.43;;;3.10;;
9445;SDS011;4761;49.490;10.908;2022-11-12T01:12:38;3.77;;;3.43;;
9445;SDS011;4761;49.490;10.908;2022-11-12T01:15:04;3.50;;;3.20;;
9445;SDS011;4761;49.490;10.908;2022-11-12T01:17:31;3.47;;;3.17;;
9445;SDS011;4761;49.490;10.908;2022-11-12T01:19:57;3.03;;;2.83;;
9445;SDS011;4761;49.490;10.908;2022-11-12T01:22:23;3.50;;;3.03;;
9445;SDS011;4761;49.490;10.908;2022-11-12T01:24:48;2.83;;;2.50;;
9445;SDS011;4761;49.490;10.908;2022-11-12T01:27:14;2.93;;;2.73;;
9445;SDS011;4761;49.490;10.908;2022-11-12T01:29:39;2.77;;;2.57;;
9445;SDS011;4761;49.490;10.908;2022-11-12T01:32:05;3.10;;;2.80;;
9445;SDS011;4761;49.490;10.908;2022-11-12T01:34:31;2.80;;;2.60;;
9445;SDS011;4761;49.490;10.908;2022-11-12T01:36:57;2.87;;;2.67;;
9445;SDS011;4761;49.490;10.908;2022-11-12T01:39:23;2.77;;;2.57;;
9445;SDS011;4761;49.490;10.908;2022-11-12T01:41:48;2.73;;;2.53;;
9445;SDS011;4761;49.490;10.908;2022-11-12T01:44:15;3.00;;;2.80;;
9445;SDS011;4761;49.490;10.908;2022-11-12T01:49:13;2.73;;;2.53;;
9445;SDS011;4761;49.490;10.908;2022-11-12T01:51:43;2.80;;;2.60;;
9445;SDS011;4761;49.490;10.908;2022-11-12T01:54:12;3.20;;;3.00;;
9445;SDS011;4761;49.490;10.908;2022-11-12T01:56:41;2.70;;;2.50;;
9445;SDS011;4761;49.490;10.908;2022-11-12T01:59:10;3.37;;;3.07;;
9445;SDS011;4761;49.490;10.908;2022-11-12T02:01:40;3.00;;;2.80;;
9445;SDS011;4761;49.490;10.908;2022-11-12T02:04:06;3.57;;;3.27;;
9445;SDS011;4761;49.490;10.908;2022-11-12T02:06:31;3.50;;;3.20;;
9445;SDS011;4761;49.490;10.908;2022-11-12T02:08:59;3.60;;;3.30;;
9445;SDS011;4761;49.490;10.908;2022-11-12T02:11:25;3.60;;;3.30;;
9445;SDS011;4761;49.490;10.908;2022-11-12T02:13:50;4.00;;;3.60;;
9445;SDS011;4761;49.490;10.908;2022-11-12T02:16:30;3.97;;;3.67;;
9445;SDS011;4761;49.490;10.908;2022-11-12T02:19:09;5.73;;;3.43;;
9445;SDS011;4761;49.490;10.908;2022-11-12T02:21:36;3.70;;;3.40;;
9445;SDS011;4761;49.490;10.908;2022-11-12T02:26:38;4.20;;;3.80;;
9445;SDS011;4761;49.490;10.908;2022-11-12T02:29:06;4.27;;;3.97;;
9445;SDS011;4761;49.490;10.908;2022-11-12T02:31:32;3.90;;;3.60;;
9445;SDS011;4761;49.490;10.908;2022-11-12T02:33:58;5.53;;;3.80;;
9445;SDS011;4761;49.490;10.908;2022-11-12T02:36:24;4.27;;;3.83;;
9445;SDS011;4761;49.490;10.908;2022-11-12T02:38:50;4.67;;;4.27;;
9445;SDS011;4761;49.490;10.908;2022-11-12T02:41:16;4.20;;;3.80;;
9445;SDS011;4761;49.490;10.908;2022-11-12T02:43:42;4.50;;;4.10;;
9445;SDS011;4761;49.490;10.908;2022-11-12T02:46:08;4.43;;;4.00;;
9445;SDS011;4761;49.490;10.908;2022-11-12T02:48:34;4.30;;;3.90;;
9445;SDS011;4761;49.490;10.908;2022-11-12T02:50:59;4.93;;;4.43;;
9445;SDS011;4761;49.490;10.908;2022-11-12T02:53:25;4.37;;;3.97;;
9445;SDS011;4761;49.490;10.908;2022-11-12T02:55:51;4.47;;;4.07;;
9445;SDS011;4761;49.490;10.908;2022-11-12T02:58:16;4.33;;;3.70;;
9445;SDS011;4761;49.490;10.908;2022-11-12T03:00:42;3.87;;;3.57;;
9445;SDS011;4761;49.490;10.908;2022-11-12T03:03:07;4.40;;;4.00;;
9445;SDS011;4761;49.490;10.908;2022-11-12T03:05:33;4.20;;;3.80;;
9445;SDS011;4761;49.490;10.908;2022-11-12T03:08:00;4.07;;;3.70;;
9445;SDS011;4761;49.490;10.908;2022-11-12T03:10:30;4.40;;;4.00;;
9445;SDS011;4761;49.490;10.908;2022-11-12T03:12:56;3.63;;;3.33;;
9445;SDS011;4761;49.490;10.908;2022-11-12T03:15:24;4.30;;;3.90;;
9445;SDS011;4761;49.490;10.908;2022-11-12T03:17:49;4.13;;;3.83;;
9445;SDS011;4761;49.490;10.908;2022-11-12T03:20:15;4.20;;;3.80;;
9445;SDS011;4761;49.490;10.908;2022-11-12T03:22:41;4.23;;;3.83;;
9445;SDS011;4761;49.490;10.908;2022-11-12T03:25:07;4.17;;;3.77;;
9445;SDS011;4761;49.490;10.908;2022-11-12T03:27:33;3.70;;;3.40;;
9445;SDS011;4761;49.490;10.908;2022-11-12T03:29:59;4.33;;;3.93;;
9445;SDS011;4761;49.490;10.908;2022-11-12T03:32:25;5.37;;;3.87;;
9445;SDS011;4761;49.490;10.908;2022-11-12T03:34:50;4.10;;;3.70;;
9445;SDS011;4761;49.490;10.908;2022-11-12T03:37:16;4.47;;;4.07;;
9445;SDS011;4761;49.490;10.908;2022-11-12T03:39:41;3.50;;;3.20;;
9445;SDS011;4761;49.490;10.908;2022-11-12T03:42:07;3.70;;;3.40;;
9445;SDS011;4761;49.490;10.908;2022-11-12T03:44:32;4.10;;;3.70;;
9445;SDS011;4761;49.490;10.908;2022-11-12T03:46:58;3.73;;;3.43;;
9445;SDS011;4761;49.490;10.908;2022-11-12T03:49:23;3.30;;;3.00;;
9445;SDS011;4761;49.490;10.908;2022-11-12T03:51:49;3.20;;;3.00;;
9445;SDS011;4761;49.490;10.908;2022-11-12T03:54:14;3.97;;;3.57;;
9445;SDS011;4761;49.490;10.908;2022-11-12T03:56:40;3.50;;;3.20;;
9445;SDS011;4761;49.490;10.908;2022-11-12T03:59:05;3.30;;;3.00;;
9445;SDS011;4761;49.490;10.908;2022-11-12T04:01:31;4.37;;;3.30;;
9445;SDS011;4761;49.490;10.908;2022-11-12T04:03:57;3.60;;;3.30;;
9445;SDS011;4761;49.490;10.908;2022-11-12T04:06:22;2.97;;;2.77;;
9445;SDS011;4761;49.490;10.908;2022-11-12T04:09:06;3.33;;;3.03;;
9445;SDS011;4761;49.490;10.908;2022-11-12T04:11:32;3.20;;;3.00;;
9445;SDS011;4761;49.490;10.908;2022-11-12T04:13:58;3.37;;;3.07;;
9445;SDS011;4761;49.490;10.908;2022-11-12T04:16:24;3.20;;;2.90;;
9445;SDS011;4761;49.490;10.908;2022-11-12T04:19:09;3.40;;;3.10;;
9445;SDS011;4761;49.490;10.908;2022-11-12T04:21:57;3.20;;;2.90;;
9445;SDS011;4761;49.490;10.908;2022-11-12T04:27:21;2.90;;;2.70;;
9445;SDS011;4761;49.490;10.908;2022-11-12T04:29:47;3.07;;;2.77;;
9445;SDS011;4761;49.490;10.908;2022-11-12T04:32:33;3.27;;;2.73;;
9445;SDS011;4761;49.490;10.908;2022-11-12T04:35:04;3.07;;;2.77;;
9445;SDS011;4761;49.490;10.908;2022-11-12T04:37:31;2.90;;;2.60;;
9445;SDS011;4761;49.490;10.908;2022-11-12T04:40:17;3.27;;;2.80;;
9445;SDS011;4761;49.490;10.908;2022-11-12T04:43:05;3.03;;;2.83;;
9445;SDS011;4761;49.490;10.908;2022-11-12T04:45:51;3.03;;;2.73;;
9445;SDS011;4761;49.490;10.908;2022-11-12T04:48:19;3.27;;;2.97;;
9445;SDS011;4761;49.490;10.908;2022-11-12T04:50:47;3.20;;;3.00;;
9445;SDS011;4761;49.490;10.908;2022-11-12T04:53:16;3.50;;;3.20;;
9445;SDS011;4761;49.490;10.908;2022-11-12T04:55:42;4.30;;;3.73;;
9445;SDS011;4761;49.490;10.908;2022-11-12T04:58:07;5.87;;;4.00;;
9445;SDS011;4761;49.490;10.908;2022-11-12T05:00:33;5.78;;;4.40;;
9445;SDS011;4761;49.490;10.908;2022-11-12T05:02:58;4.37;;;3.60;;
9445;SDS011;4761;49.490;10.908;2022-11-12T05:05:24;5.83;;;3.80;;
9445;SDS011;4761;49.490;10.908;2022-11-12T05:07:50;5.30;;;3.90;;
9445;SDS011;4761;49.490;10.908;2022-11-12T05:10:15;3.83;;;3.23;;
9445;SDS011;4761;49.490;10.908;2022-11-12T05:12:41;3.83;;;3.23;;
9445;SDS011;4761;49.490;10.908;2022-11-12T05:15:08;4.50;;;3.33;;
9445;SDS011;4761;49.490;10.908;2022-11-12T05:17:34;4.13;;;3.17;;
9445;SDS011;4761;49.490;10.908;2022-11-12T05:19:59;3.77;;;2.97;;
9445;SDS011;4761;49.490;10.908;2022-11-12T05:22:25;3.33;;;3.00;;
9445;SDS011;4761;49.490;10.908;2022-11-12T05:24:51;2.67;;;2.47;;
9445;SDS011;4761;49.490;10.908;2022-11-12T05:27:17;3.20;;;2.90;;
9445;SDS011;4761;49.490;10.908;2022-11-12T05:29:45;4.40;;;2.90;;
9445;SDS011;4761;49.490;10.908;2022-11-12T05:32:12;3.53;;;2.57;;
9445;SDS011;4761;49.490;10.908;2022-11-12T05:34:39;3.30;;;3.00;;
9445;SDS011;4761;49.490;10.908;2022-11-12T05:37:05;3.03;;;2.60;;
9445;SDS011;4761;49.490;10.908;2022-11-12T05:39:32;3.33;;;2.90;;
9445;SDS011;4761;49.490;10.908;2022-11-12T05:41:57;2.80;;;2.60;;
9445;SDS011;4761;49.490;10.908;2022-11-12T05:44:23;2.77;;;2.57;;
9445;SDS011;4761;49.490;10.908;2022-11-12T05:46:49;2.73;;;2.50;;
9445;SDS011;4761;49.490;10.908;2022-11-12T05:49:14;3.10;;;2.77;;
9445;SDS011;4761;49.490;10.908;2022-11-12T05:51:41;3.10;;;2.40;;
9445;SDS011;4761;49.490;10.908;2022-11-12T05:54:07;2.50;;;2.30;;
9445;SDS011;4761;49.490;10.908;2022-11-12T05:56:33;3.00;;;2.70;;
9445;SDS011;4761;49.490;10.908;2022-11-12T05:59:00;2.70;;;2.50;;
9445;SDS011;4761;49.490;10.908;2022-11-12T06:01:27;2.73;;;2.43;;
9445;SDS011;4761;49.490;10.908;2022-11-12T06:03:53;3.00;;;2.70;;
9445;SDS011;4761;49.490;10.908;2022-11-12T06:06:19;2.50;;;2.30;;
9445;SDS011;4761;49.490;10.908;2022-11-12T06:08:45;2.57;;;2.37;;
9445;SDS011;4761;49.490;10.908;2022-11-12T06:11:10;2.50;;;2.30;;
9445;SDS011;4761;49.490;10.908;2022-11-12T06:13:36;2.47;;;2.27;;
9445;SDS011;4761;49.490;10.908;2022-11-12T06:16:01;3.23;;;2.53;;
9445;SDS011;4761;49.490;10.908;2022-11-12T06:18:27;2.70;;;2.50;;
9445;SDS011;4761;49.490;10.908;2022-11-12T06:20:52;2.77;;;2.57;;
9445;SDS011;4761;49.490;10.908;2022-11-12T06:23:37;2.63;;;2.43;;
9445;SDS011;4761;49.490;10.908;2022-11-12T06:26:02;3.70;;;2.70;;
9445;SDS011;4761;49.490;10.908;2022-11-12T06:28:28;2.80;;;2.60;;
9445;SDS011;4761;49.490;10.908;2022-11-12T06:30:54;2.60;;;2.40;;
9445;SDS011;4761;49.490;10.908;2022-11-12T06:33:20;3.03;;;2.73;;
9445;SDS011;4761;49.490;10.908;2022-11-12T06:35:45;2.90;;;2.70;;
9445;SDS011;4761;49.490;10.908;2022-11-12T06:38:11;3.20;;;2.90;;
9445;SDS011;4761;49.490;10.908;2022-11-12T06:40:37;2.80;;;2.60;;
9445;SDS011;4761;49.490;10.908;2022-11-12T06:43:02;3.30;;;3.00;;
9445;SDS011;4761;49.490;10.908;2022-11-12T06:45:28;2.80;;;2.60;;
9445;SDS011;4761;49.490;10.908;2022-11-12T06:47:57;3.30;;;3.00;;
9445;SDS011;4761;49.490;10.908;2022-11-12T06:50:23;3.10;;;2.90;;
9445;SDS011;4761;49.490;10.908;2022-11-12T06:52:49;3.47;;;3.17;;
9445;SDS011;4761;49.490;10.908;2022-11-12T06:55:14;3.03;;;2.80;;
9445;SDS011;4761;49.490;10.908;2022-11-12T06:57:40;3.60;;;3.30;;
9445;SDS011;4761;49.490;10.908;2022-11-12T07:00:05;3.00;;;2.80;;
9445;SDS011;4761;49.490;10.908;2022-11-12T07:02:33;2.90;;;2.60;;
9445;SDS011;4761;49.490;10.908;2022-11-12T07:04:58;3.20;;;2.80;;
9445;SDS011;4761;49.490;10.908;2022-11-12T07:07:24;3.00;;;2.70;;
9445;SDS011;4761;49.490;10.908;2022-11-12T07:09:49;3.00;;;2.70;;
9445;SDS011;4761;49.490;10.908;2022-11-12T07:12:15;2.50;;;2.30;;
9445;SDS011;4761;49.490;10.908;2022-11-12T07:14:40;2.43;;;2.23;;
9445;SDS011;4761;49.490;10.908;2022-11-12T07:17:06;3.40;;;3.10;;
9445;SDS011;4761;49.490;10.908;2022-11-12T07:19:31;3.87;;;3.47;;
9445;SDS011;4761;49.490;10.908;2022-11-12T07:21:57;3.43;;;3.13;;
9445;SDS011;4761;49.490;10.908;2022-11-12T07:24:22;2.10;;;2.00;;
9445;SDS011;4761;49.490;10.908;2022-11-12T07:26:48;2.70;;;2.50;;
9445;SDS011;4761;49.490;10.908;2022-11-12T07:29:13;2.70;;;2.50;;
9445;SDS011;4761;49.490;10.908;2022-11-12T07:31:39;2.90;;;2.70;;
9445;SDS011;4761;49.490;10.908;2022-11-12T07:34:04;2.70;;;2.50;;
9445;SDS011;4761;49.490;10.908;2022-11-12T07:36:30;2.73;;;2.53;;
9445;SDS011;4761;49.490;10.908;2022-11-12T07:38:55;2.20;;;2.10;;
9445;SDS011;4761;49.490;10.908;2022-11-12T07:41:22;2.93;;;2.73;;
9445;SDS011;4761;49.490;10.908;2022-11-12T07:43:49;2.83;;;2.63;;
9445;SDS011;4761;49.490;10.908;2022-11-12T07:46:18;2.97;;;2.77;;
9445;SDS011;4761;49.490;10.908;2022-11-12T07:48:48;2.60;;;2.40;;
9445;SDS011;4761;49.490;10.908;2022-11-12T07:51:15;2.60;;;2.40;;
9445;SDS011;4761;49.490;10.908;2022-11-12T07:53:46;2.53;;;2.33;;
9445;SDS011;4761;49.490;10.908;2022-11-12T07:56:16;2.60;;;2.40;;
9445;SDS011;4761;49.490;10.908;2022-11-12T07:58:44;2.57;;;2.03;;
9445;SDS011;4761;49.490;10.908;2022-11-12T08:03:43;2.07;;;1.97;;
9445;SDS011;4761;49.490;10.908;2022-11-12T08:06:09;2.13;;;2.00;;
9445;SDS011;4761;49.490;10.908;2022-11-12T08:08:34;2.27;;;2.07;;
9445;SDS011;4761;49.490;10.908;2022-11-12T08:11:00;2.03;;;1.93;;
9445;SDS011;4761;49.490;10.908;2022-11-12T08:13:25;2.10;;;1.90;;
9445;SDS011;4761;49.490;10.908;2022-11-12T08:15:51;2.43;;;2.30;;
9445;SDS011;4761;49.490;10.908;2022-11-12T08:18:16;2.30;;;2.10;;
9445;SDS011;4761;49.490;10.908;2022-11-12T08:20:43;2.30;;;2.10;;
9445;SDS011;4761;49.490;10.908;2022-11-12T08:23:08;2.40;;;2.20;;
9445;SDS011;4761;49.490;10.908;2022-11-12T08:25:34;2.50;;;2.30;;
9445;SDS011;4761;49.490;10.908;2022-11-12T08:28:00;2.53;;;2.30;;
9445;SDS011;4761;49.490;10.908;2022-11-12T08:30:27;2.40;;;2.20;;
9445;SDS011;4761;49.490;10.908;2022-11-12T08:32:54;2.63;;;2.43;;
9445;SDS011;4761;49.490;10.908;2022-11-12T08:35:24;3.17;;;2.87;;
9445;SDS011;4761;49.490;10.908;2022-11-12T08:37:56;2.97;;;2.77;;
9445;SDS011;4761;49.490;10.908;2022-11-12T08:40:22;2.90;;;2.70;;
9445;SDS011;4761;49.490;10.908;2022-11-12T08:42:48;2.47;;;2.27;;
9445;SDS011;4761;49.490;10.908;2022-11-12T08:45:24;2.37;;;2.17;;
9445;SDS011;4761;49.490;10.908;2022-11-12T08:47:50;2.43;;;2.23;;
9445;SDS011;4761;49.490;10.908;2022-11-12T08:50:16;3.77;;;3.13;;
9445;SDS011;4761;49.490;10.908;2022-11-12T08:52:42;4.23;;;3.10;;
9445;SDS011;4761;49.490;10.908;2022-11-12T08:55:07;3.63;;;3.33;;
9445;SDS011;4761;49.490;10.908;2022-11-12T08:57:38;3.47;;;3.17;;
9445;SDS011;4761;49.490;10.908;2022-11-12T09:00:07;2.90;;;2.60;;
9445;SDS011;4761;49.490;10.908;2022-11-12T09:02:33;3.93;;;3.63;;
9445;SDS011;4761;49.490;10.908;2022-11-12T09:04:59;4.33;;;3.93;;
9445;SDS011;4761;49.490;10.908;2022-11-12T09:07:24;4.20;;;3.90;;
9445;SDS011;4761;49.490;10.908;2022-11-12T09:09:50;4.57;;;4.17;;
9445;SDS011;4761;49.490;10.908;2022-11-12T09:12:16;4.30;;;3.90;;
9445;SDS011;4761;49.490;10.908;2022-11-12T09:14:43;5.23;;;4.63;;
9445;SDS011;4761;49.490;10.908;2022-11-12T09:17:10;5.43;;;4.00;;
9445;SDS011;4761;49.490;10.908;2022-11-12T09:19:36;4.67;;;4.27;;
9445;SDS011;4761;49.490;10.908;2022-11-12T09:22:02;4.20;;;3.80;;
9445;SDS011;4761;49.490;10.908;2022-11-12T09:24:27;4.17;;;3.77;;
9445;SDS011;4761;49.490;10.908;2022-11-12T09:26:53;4.50;;;4.03;;
9445;SDS011;4761;49.490;10.908;2022-11-12T09:29:19;4.07;;;3.70;;
9445;SDS011;4761;49.490;10.908;2022-11-12T09:31:44;4.50;;;4.07;;
9445;SDS011;4761;49.490;10.908;2022-11-12T09:34:10;4.90;;;4.40;;
9445;SDS011;4761;49.490;10.908;2022-11-12T09:36:36;5.77;;;4.60;;
9445;SDS011;4761;49.490;10.908;2022-11-12T09:39:02;3.47;;;3.13;;
9445;SDS011;4761;49.490;10.908;2022-11-12T09:41:40;4.67;;;4.10;;
9445;SDS011;4761;49.490;10.908;2022-11-12T09:44:10;5.60;;;4.83;;
9445;SDS011;4761;49.490;10.908;2022-11-12T09:46:47;8.63;;;4.30;;
9445;SDS011;4761;49.490;10.908;2022-11-12T09:49:24;5.90;;;4.87;;
9445;SDS011;4761;49.490;10.908;2022-11-12T09:51:56;5.63;;;4.87;;
9445;SDS011;4761;49.490;10.908;2022-11-12T09:54:28;5.33;;;4.77;;
9445;SDS011;4761;49.490;10.908;2022-11-12T09:56:55;7.93;;;6.17;;
9445;SDS011;4761;49.490;10.908;2022-11-12T09:59:21;7.07;;;5.73;;
9445;SDS011;4761;49.490;10.908;2022-11-12T10:01:56;6.53;;;5.03;;
9445;SDS011;4761;49.490;10.908;2022-11-12T10:07:11;5.37;;;4.70;;
9445;SDS011;4761;49.490;10.908;2022-11-12T10:18:24;5.43;;;3.90;;
9445;SDS011;4761;49.490;10.908;2022-11-12T10:21:07;7.37;;;4.77;;
9445;SDS011;4761;49.490;10.908;2022-11-12T10:23:42;4.67;;;4.20;;
9445;SDS011;4761;49.490;10.908;2022-11-12T10:26:14;4.83;;;4.03;;
9445;SDS011;4761;49.490;10.908;2022-11-12T10:31:18;5.43;;;4.60;;
9445;SDS011;4761;49.490;10.908;2022-11-12T10:33:44;10.53;;;4.50;;
9445;SDS011;4761;49.490;10.908;2022-11-12T10:36:11;5.60;;;4.40;;
9445;SDS011;4761;49.490;10.908;2022-11-12T10:38:50;5.07;;;4.40;;
9445;SDS011;4761;49.490;10.908;2022-11-12T10:41:19;5.87;;;4.13;;
9445;SDS011;4761;49.490;10.908;2022-11-12T10:43:57;6.17;;;4.40;;
9445;SDS011;4761;49.490;10.908;2022-11-12T10:48:56;5.10;;;4.60;;
9445;SDS011;4761;49.490;10.908;2022-11-12T10:52:03;5.67;;;4.60;;
9445;SDS011;4761;49.490;10.908;2022-11-12T10:54:43;5.87;;;4.47;;
9445;SDS011;4761;49.490;10.908;2022-11-12T10:57:22;4.57;;;4.17;;
9445;SDS011;4761;49.490;10.908;2022-11-12T11:00:04;5.13;;;4.30;;
9445;SDS011;4761;49.490;10.908;2022-11-12T11:02:31;5.50;;;4.47;;
9445;SDS011;4761;49.490;10.908;2022-11-12T11:04:57;4.63;;;4.17;;
9445;SDS011;4761;49.490;10.908;2022-11-12T11:07:23;5.60;;;4.77;;
9445;SDS011;4761;49.490;10.908;2022-11-12T11:09:56;6.67;;;4.30;;
9445;SDS011;4761;49.490;10.908;2022-11-12T11:12:28;5.47;;;4.60;;
9445;SDS011;4761;49.490;10.908;2022-11-12T11:17:31;5.00;;;4.50;;
9445;SDS011;4761;49.490;10.908;2022-11-12T11:19:58;5.10;;;4.60;;
9445;SDS011;4761;49.490;10.908;2022-11-12T11:22:29;4.93;;;4.53;;
9445;SDS011;4761;49.490;10.908;2022-11-12T11:25:22;4.67;;;4.27;;
9445;SDS011;4761;49.490;10.908;2022-11-12T11:27:56;4.90;;;4.37;;
9445;SDS011;4761;49.490;10.908;2022-11-12T11:30:51;4.50;;;4.10;;
9445;SDS011;4761;49.490;10.908;2022-11-12T11:33:40;4.80;;;4.00;;
9445;SDS011;4761;49.490;10.908;2022-11-12T11:42:21;7.07;;;4.93;;
9445;SDS011;4761;49.490;10.908;2022-11-12T11:45:14;11.13;;;6.47;;
9445;SDS011;4761;49.490;10.908;2022-11-12T11:47:45;5.30;;;4.40;;
9445;SDS011;4761;49.490;10.908;2022-11-12T11:55:59;4.33;;;3.93;;
9445;SDS011;4761;49.490;10.908;2022-11-12T12:01:09;3.87;;;3.57;;
9445;SDS011;4761;49.490;10.908;2022-11-12T12:11:36;3.70;;;3.40;;
9445;SDS011;4761;49.490;10.908;2022-11-12T12:20:07;3.73;;;3.40;;
9445;SDS011;4761;49.490;10.908;2022-11-12T12:22:58;4.30;;;3.80;;
9445;SDS011;4761;49.490;10.908;2022-11-12T12:25:33;4.87;;;3.60;;
9445;SDS011;4761;49.490;10.908;2022-11-12T12:28:13;4.30;;;3.90;;
9445;SDS011;4761;49.490;10.908;2022-11-12T12:30:46;4.40;;;4.00;;
9445;SDS011;4761;49.490;10.908;2022-11-12T12:35:53;4.87;;;4.47;;
9445;SDS011;4761;49.490;10.908;2022-11-12T12:38:25;4.20;;;3.80;;
9445;SDS011;4761;49.490;10.908;2022-11-12T12:41:17;4.30;;;3.90;;
9445;SDS011;4761;49.490;10.908;2022-11-12T12:43:52;4.90;;;3.80;;
9445;SDS011;4761;49.490;10.908;2022-11-12T12:46:41;4.43;;;3.97;;
9445;SDS011;4761;49.490;10.908;2022-11-12T12:49:18;4.23;;;3.83;;
9445;SDS011;4761;49.490;10.908;2022-11-12T12:51:51;4.40;;;4.00;;
9445;SDS011;4761;49.490;10.908;2022-11-12T12:54:51;4.53;;;4.13;;
9445;SDS011;4761;49.490;10.908;2022-11-12T12:57:25;4.30;;;3.90;;
9445;SDS011;4761;49.490;10.908;2022-11-12T13:02:59;4.47;;;4.07;;
9445;SDS011;4761;49.490;10.908;2022-11-12T13:05:26;4.80;;;4.30;;
9445;SDS011;4761;49.490;10.908;2022-11-12T13:08:04;4.20;;;3.80;;
9445;SDS011;4761;49.490;10.908;2022-11-12T13:15:49;4.43;;;4.03;;
9445;SDS011;4761;49.490;10.908;2022-11-12T13:23:41;4.93;;;4.43;;
9445;SDS011;4761;49.490;10.908;2022-11-12T13:26:36;4.67;;;4.23;;
9445;SDS011;4761;49.490;10.908;2022-11-12T13:29:20;5.03;;;4.53;;
9445;SDS011;4761;49.490;10.908;2022-11-12T13:35:34;4.57;;;4.17;;
9445;SDS011;4761;49.490;10.908;2022-11-12T13:40:34;4.70;;;4.30;;
9445;SDS011;4761;49.490;10.908;2022-11-12T13:43:02;5.03;;;4.47;;
9445;SDS011;4761;49.490;10.908;2022-11-12T13:45:48;5.87;;;4.63;;
9445;SDS011;4761;49.490;10.908;2022-11-12T13:51:05;6.10;;;4.23;;
9445;SDS011;4761;49.490;10.908;2022-11-12T13:53:43;5.37;;;4.63;;
9445;SDS011;4761;49.490;10.908;2022-11-12T13:56:09;5.53;;;4.63;;
9445;SDS011;4761;49.490;10.908;2022-11-12T13:58:36;5.17;;;4.60;;
9445;SDS011;4761;49.490;10.908;2022-11-12T14:01:05;5.40;;;4.70;;
9445;SDS011;4761;49.490;10.908;2022-11-12T14:06:14;6.43;;;5.17;;
9445;SDS011;4761;49.490;10.908;2022-11-12T14:17:54;5.80;;;5.20;;
9445;SDS011;4761;49.490;10.908;2022-11-12T14:20:25;5.90;;;5.30;;
9445;SDS011;4761;49.490;10.908;2022-11-12T14:22:56;5.70;;;5.20;;
9445;SDS011;4761;49.490;10.908;2022-11-12T14:28:31;8.83;;;6.90;;
9445;SDS011;4761;49.490;10.908;2022-11-12T14:30:58;8.10;;;7.03;;
9445;SDS011;4761;49.490;10.908;2022-11-12T14:33:25;7.47;;;6.60;;
9445;SDS011;4761;49.490;10.908;2022-11-12T14:35:53;7.13;;;6.40;;
9445;SDS011;4761;49.490;10.908;2022-11-12T14:38:37;7.30;;;6.50;;
9445;SDS011;4761;49.490;10.908;2022-11-12T14:43:35;6.77;;;5.83;;
9445;SDS011;4761;49.490;10.908;2022-11-12T14:46:05;7.17;;;5.67;;
9445;SDS011;4761;49.490;10.908;2022-11-12T14:48:33;6.87;;;6.17;;
9445;SDS011;4761;49.490;10.908;2022-11-12T14:51:11;7.97;;;6.30;;
9445;SDS011;4761;49.490;10.908;2022-11-12T14:53:39;7.63;;;6.10;;
9445;SDS011;4761;49.490;10.908;2022-11-12T14:56:08;6.63;;;5.87;;
9445;SDS011;4761;49.490;10.908;2022-11-12T14:58:41;8.37;;;6.00;;
9445;SDS011;4761;49.490;10.908;2022-11-12T15:01:21;8.70;;;6.97;;
9445;SDS011;4761;49.490;10.908;2022-11-12T15:03:49;7.70;;;6.60;;
9445;SDS011;4761;49.490;10.908;2022-11-12T15:06:17;6.87;;;6.23;;
9445;SDS011;4761;49.490;10.908;2022-11-12T15:08:54;8.07;;;7.07;;
9445;SDS011;4761;49.490;10.908;2022-11-12T15:11:29;7.47;;;6.67;;
9445;SDS011;4761;49.490;10.908;2022-11-12T15:14:10;6.77;;;6.07;;
9445;SDS011;4761;49.490;10.908;2022-11-12T15:16:45;7.27;;;6.30;;
9445;SDS011;4761;49.490;10.908;2022-11-12T15:21:45;7.03;;;6.00;;
9445;SDS011;4761;49.490;10.908;2022-11-12T15:24:28;6.43;;;5.83;;
9445;SDS011;4761;49.490;10.908;2022-11-12T15:26:57;8.27;;;6.07;;
9445;SDS011;4761;49.490;10.908;2022-11-12T15:37:07;6.63;;;5.73;;
9445;SDS011;4761;49.490;10.908;2022-11-12T15:39:40;6.57;;;5.97;;
9445;SDS011;4761;49.490;10.908;2022-11-12T15:42:14;6.20;;;5.47;;
9445;SDS011;4761;49.490;10.908;2022-11-12T15:45:01;6.37;;;5.77;;
9445;SDS011;4761;49.490;10.908;2022-11-12T15:47:29;7.17;;;5.30;;
9445;SDS011;4761;49.490;10.908;2022-11-12T15:49:55;6.27;;;5.67;;
9445;SDS011;4761;49.490;10.908;2022-11-12T15:52:23;6.37;;;5.70;;
9445;SDS011;4761;49.490;10.908;2022-11-12T15:54:49;8.43;;;6.00;;
9445;SDS011;4761;49.490;10.908;2022-11-12T15:57:21;6.50;;;5.77;;
9445;SDS011;4761;49.490;10.908;2022-11-12T15:59:59;6.50;;;5.90;;
9445;SDS011;4761;49.490;10.908;2022-11-12T16:02:26;7.30;;;6.20;;
9445;SDS011;4761;49.490;10.908;2022-11-12T16:04:53;7.57;;;6.23;;
9445;SDS011;4761;49.490;10.908;2022-11-12T16:07:19;7.03;;;5.93;;
9445;SDS011;4761;49.490;10.908;2022-11-12T16:09:44;10.00;;;5.73;;
9445;SDS011;4761;49.490;10.908;2022-11-12T16:12:10;8.57;;;6.67;;
9445;SDS011;4761;49.490;10.908;2022-11-12T16:14:37;8.57;;;6.27;;
9445;SDS011;4761;49.490;10.908;2022-11-12T16:17:03;7.90;;;6.83;;
9445;SDS011;4761;49.490;10.908;2022-11-12T16:19:49;6.83;;;6.13;;
9445;SDS011;4761;49.490;10.908;2022-11-12T16:22:15;7.33;;;6.50;;
9445;SDS011;4761;49.490;10.908;2022-11-12T16:24:41;6.83;;;6.13;;
9445;SDS011;4761;49.490;10.908;2022-11-12T16:27:13;7.13;;;6.27;;
9445;SDS011;4761;49.490;10.908;2022-11-12T16:29:39;8.00;;;6.40;;
9445;SDS011;4761;49.490;10.908;2022-11-12T16:32:05;7.93;;;6.13;;
9445;SDS011;4761;49.490;10.908;2022-11-12T16:34:31;8.07;;;6.57;;
9445;SDS011;4761;49.490;10.908;2022-11-12T16:36:56;9.60;;;6.53;;
9445;SDS011;4761;49.490;10.908;2022-11-12T16:39:22;7.03;;;6.23;;
9445;SDS011;4761;49.490;10.908;2022-11-12T16:41:48;7.23;;;6.37;;
9445;SDS011;4761;49.490;10.908;2022-11-12T16:44:14;8.13;;;6.80;;
9445;SDS011;4761;49.490;10.908;2022-11-12T16:46:40;8.13;;;6.63;;
9445;SDS011;4761;49.490;10.908;2022-11-12T16:49:12;7.77;;;6.87;;
9445;SDS011;4761;49.490;10.908;2022-11-12T16:51:38;8.17;;;6.63;;
9445;SDS011;4761;49.490;10.908;2022-11-12T16:54:04;8.90;;;6.73;;
9445;SDS011;4761;49.490;10.908;2022-11-12T16:56:30;7.83;;;6.83;;
9445;SDS011;4761;49.490;10.908;2022-11-12T16:58:57;9.37;;;7.03;;
9445;SDS011;4761;49.490;10.908;2022-11-12T17:01:27;8.63;;;6.83;;
9445;SDS011;4761;49.490;10.908;2022-11-12T17:03:55;8.07;;;7.17;;